Time;durP1;ratioP1;P1;durP2;ratioP2;P2;SDS_P1;SDS_P2;PMS_P1;PMS_P2;Temp;Humidity;BMP_temperature;BMP_pressure;BME280_temperature;BME280_humidity;BME280_pressure;Samples;Min_cycle;Max_cycle;Signal;HPM_P1;HPM_P2
2021/03/07 00:00:29;;;;;;;11.63;8.10;;;;;;;2.72;61.68;101287.39;127999;1101;22503;-75
2021/03/07 00:03:08;;;;;;;10.80;7.40;;;;;;;2.71;61.27;101291.77;127973;1101;22511;-75
2021/03/07 00:05:37;;;;;;;14.60;8.33;;;;;;;2.73;61.99;101287.31;128178;1099;22580;-75
2021/03/07 00:08:05;;;;;;;14.80;7.65;;;;;;;2.74;62.01;101283.77;127978;1101;22511;-75
2021/03/07 00:10:34;;;;;;;12.78;8.03;;;;;;;2.76;61.91;101281.88;128181;1099;22489;-75
2021/03/07 00:13:02;;;;;;;13.45;8.75;;;;;;;2.79;61.35;101286.91;128151;1101;25192;-75
2021/03/07 00:15:30;;;;;;;13.03;8.23;;;;;;;2.81;61.28;101282.44;128102;1099;24587;-76
2021/03/07 00:17:58;;;;;;;12.60;7.95;;;;;;;2.81;61.17;101285.05;128185;1101;22618;-75
2021/03/07 00:20:27;;;;;;;12.25;7.20;;;;;;;2.82;61.29;101284.11;128216;1099;22521;-75
2021/03/07 00:22:55;;;;;;;12.07;7.10;;;;;;;2.83;62.10;101274.50;128166;1099;23435;-75
2021/03/07 00:25:24;;;;;;;12.03;6.78;;;;;;;2.83;61.84;101272.77;128225;1101;22771;-75
2021/03/07 00:27:52;;;;;;;11.43;7.12;;;;;;;2.83;61.84;101267.55;128018;1101;22538;-75
2021/03/07 00:30:20;;;;;;;12.95;7.12;;;;;;;2.82;61.33;101260.63;128159;1101;22502;-75
2021/03/07 00:32:48;;;;;;;12.05;7.65;;;;;;;2.81;61.43;101260.73;127954;1099;24720;-75
2021/03/07 00:35:17;;;;;;;12.53;7.40;;;;;;;2.78;61.47;101256.53;128174;1101;24467;-75
2021/03/07 00:37:45;;;;;;;9.88;6.35;;;;;;;2.78;61.95;101258.31;128158;1100;22542;-75
2021/03/07 00:40:14;;;;;;;12.90;7.92;;;;;;;2.77;61.19;101252.27;128092;1100;22500;-75
2021/03/07 00:42:48;;;;;;;10.13;6.55;;;;;;;2.76;61.83;101245.34;127944;1099;25949;-75
2021/03/07 00:45:18;;;;;;;9.70;7.15;;;;;;;2.76;61.35;101247.95;128088;1101;22525;-75
2021/03/07 00:47:47;;;;;;;9.75;6.62;;;;;;;2.78;61.78;101238.27;127979;1101;22502;-75
2021/03/07 00:50:26;;;;;;;10.63;6.53;;;;;;;2.76;61.78;101232.30;128198;1101;22505;-79
2021/03/07 00:52:56;;;;;;;12.93;6.70;;;;;;;2.78;62.29;101221.78;128074;1100;22610;-75
2021/03/07 00:55:25;;;;;;;11.08;6.65;;;;;;;2.76;62.31;101214.03;127912;1101;24616;-76
2021/03/07 00:57:53;;;;;;;10.23;6.27;;;;;;;2.77;62.24;101213.13;128209;1100;22503;-76
2021/03/07 01:00:29;;;;;;;9.60;6.53;;;;;;;2.81;61.41;101209.38;127931;1101;24564;-76
2021/03/07 01:02:57;;;;;;;10.25;6.12;;;;;;;2.81;61.84;101205.94;128140;1099;22610;-75
2021/03/07 01:05:30;;;;;;;10.58;6.83;;;;;;;2.83;61.50;101198.83;128235;1101;22517;-75
2021/03/07 01:07:58;;;;;;;8.37;6.40;;;;;;;2.83;62.26;101197.08;127962;1100;22502;-75
2021/03/07 01:10:37;;;;;;;10.85;6.55;;;;;;;2.82;61.91;101195.39;127919;1101;22538;-76
2021/03/07 01:13:10;;;;;;;9.03;6.97;;;;;;;2.81;62.34;101192.89;127939;1100;22645;-75
2021/03/07 01:15:40;;;;;;;8.35;5.97;;;;;;;2.77;61.47;101187.03;128189;1101;22612;-75
2021/03/07 01:18:10;;;;;;;9.30;5.97;;;;;;;2.76;62.43;101185.33;128236;1101;22645;-76
2021/03/07 01:20:41;;;;;;;10.08;6.53;;;;;;;2.75;62.16;101191.50;128194;1101;24689;-75
2021/03/07 01:23:10;;;;;;;13.18;6.87;;;;;;;2.72;61.90;101176.03;128277;1101;22511;-75
2021/03/07 01:25:39;;;;;;;9.43;6.78;;;;;;;2.69;62.50;101170.17;128191;1101;22580;-75
2021/03/07 01:28:08;;;;;;;12.28;7.35;;;;;;;2.70;62.62;101170.09;127959;1101;22609;-76
2021/03/07 01:30:39;;;;;;;9.80;7.20;;;;;;;2.71;61.79;101171.76;128193;1101;23028;-76
2021/03/07 01:33:07;;;;;;;13.53;7.63;;;;;;;2.70;62.32;101167.48;128028;1101;23267;-75
2021/03/07 01:35:38;;;;;;;10.08;7.37;;;;;;;2.71;62.05;101160.48;127955;1101;24610;-75
2021/03/07 01:38:06;;;;;;;9.90;6.97;;;;;;;2.68;62.65;101151.08;127913;1099;22509;-75
2021/03/07 01:40:39;;;;;;;11.78;7.85;;;;;;;2.69;62.83;101144.91;127944;1101;24606;-75
2021/03/07 01:43:08;;;;;;;8.48;6.03;;;;;;;2.70;62.39;101146.61;128140;1100;22507;-75
2021/03/07 01:45:36;;;;;;;9.37;6.17;;;;;;;2.73;62.88;101143.81;128036;1101;22618;-75
2021/03/07 01:48:10;;;;;;;9.20;6.65;;;;;;;2.75;62.67;101136.70;127913;1101;22543;-75
2021/03/07 01:50:45;;;;;;;9.50;6.75;;;;;;;2.72;62.44;101139.50;127978;1099;24689;-75
2021/03/07 01:53:15;;;;;;;11.97;6.80;;;;;;;2.70;62.58;101125.74;128007;1101;22542;-75
2021/03/07 01:55:44;;;;;;;15.18;7.40;;;;;;;2.69;62.68;101128.43;128165;1100;22683;-75
2021/03/07 01:58:20;;;;;;;12.78;7.70;;;;;;;2.67;62.69;101127.70;128018;1101;22537;-75
2021/03/07 02:00:48;;;;;;;12.10;6.95;;;;;;;2.64;62.66;101126.13;128216;1101;22483;-75
2021/03/07 02:03:17;;;;;;;11.28;7.10;;;;;;;2.65;62.89;101111.30;128242;1101;22490;-75
2021/03/07 02:05:47;;;;;;;11.08;7.60;;;;;;;2.66;63.20;101113.80;128160;1101;24141;-75
2021/03/07 02:08:17;;;;;;;11.73;7.53;;;;;;;2.66;62.93;101107.75;128006;1101;24966;-75
2021/03/07 02:10:51;;;;;;;8.53;6.53;;;;;;;2.66;62.37;101108.58;128015;1101;22504;-75
2021/03/07 02:13:30;;;;;;;8.93;6.80;;;;;;;2.69;62.98;101115.38;128195;1099;22579;-75
2021/03/07 02:16:03;;;;;;;8.58;5.95;;;;;;;2.70;63.26;101098.78;128247;1100;22651;-75
2021/03/07 02:18:35;;;;;;;9.00;6.87;;;;;;;2.72;62.97;101094.32;128141;1100;22521;-75
2021/03/07 02:21:20;;;;;;;10.30;7.37;;;;;;;2.73;62.32;101090.77;128282;1101;22514;-75
2021/03/07 02:24:07;;;;;;;11.25;7.00;;;;;;;2.75;62.83;101102.78;128227;1101;22598;-74
2021/03/07 02:26:40;;;;;;;11.97;7.10;;;;;;;2.76;62.81;101096.62;128149;1100;22630;-75
2021/03/07 02:29:10;;;;;;;10.05;6.75;;;;;;;2.77;62.41;101100.92;128205;1101;22583;-75
2021/03/07 02:31:44;;;;;;;10.13;6.20;;;;;;;2.78;62.38;101092.15;127950;1101;22578;-75
2021/03/07 02:34:22;;;;;;;9.50;6.08;;;;;;;2.80;62.64;101105.12;128187;1100;22961;-75
2021/03/07 02:36:54;;;;;;;8.90;6.58;;;;;;;2.80;62.13;101097.28;128009;1099;22542;-75
2021/03/07 02:39:30;;;;;;;9.45;6.83;;;;;;;2.80;62.70;101090.30;128242;1101;22544;-75
2021/03/07 02:42:04;;;;;;;9.28;6.37;;;;;;;2.82;62.82;101088.40;128217;1101;24460;-75
2021/03/07 02:44:37;;;;;;;9.20;6.08;;;;;;;2.82;62.56;101079.73;127963;1101;22510;-75
2021/03/07 02:47:06;;;;;;;10.20;6.70;;;;;;;2.80;61.94;101072.02;128203;1099;22608;-75
2021/03/07 02:49:36;;;;;;;14.77;6.83;;;;;;;2.81;61.95;101076.30;128245;1099;24606;-75
2021/03/07 02:52:07;;;;;;;9.70;7.03;;;;;;;2.84;62.77;101075.27;127967;1101;24434;-76
2021/03/07 02:54:38;;;;;;;8.58;6.60;;;;;;;2.85;61.98;101068.27;128287;1099;22789;-75
2021/03/07 02:57:08;;;;;;;11.48;6.83;;;;;;;2.86;62.37;101067.33;128260;1101;22610;-76
2021/03/07 02:59:40;;;;;;;9.15;6.20;;;;;;;2.85;61.65;101068.27;127987;1101;22615;-76
2021/03/07 03:02:08;;;;;;;9.43;6.05;;;;;;;2.86;62.62;101056.89;128029;1101;22539;-75
2021/03/07 03:04:39;;;;;;;9.70;5.78;;;;;;;2.87;62.29;101059.41;128214;1099;22583;-76
2021/03/07 03:07:08;;;;;;;9.17;6.13;;;;;;;2.85;62.38;101060.44;128189;1099;22589;-77
2021/03/07 03:09:37;;;;;;;10.28;6.65;;;;;;;2.83;61.95;101055.30;127936;1101;23079;-75
2021/03/07 03:12:07;;;;;;;12.50;6.95;;;;;;;2.82;62.54;101051.87;127992;1099;24181;-75
2021/03/07 03:14:37;;;;;;;8.65;7.20;;;;;;;2.82;62.17;101051.03;128026;1101;23560;-75
2021/03/07 03:17:06;;;;;;;6.95;5.83;;;;;;;2.81;62.54;101046.77;127950;1101;23379;-75
2021/03/07 03:19:36;;;;;;;8.93;6.08;;;;;;;2.81;61.85;101042.38;127987;1101;24854;-75
2021/03/07 03:22:04;;;;;;;10.35;7.47;;;;;;;2.80;62.47;101045.94;127992;1101;25109;-76
2021/03/07 03:24:34;;;;;;;7.90;6.30;;;;;;;2.80;61.86;101040.71;128157;1099;24851;-75
2021/03/07 03:27:02;;;;;;;9.28;6.80;;;;;;;2.79;61.74;101031.19;128182;1099;22544;-75
2021/03/07 03:29:32;;;;;;;10.13;7.30;;;;;;;2.76;62.55;101033.17;128133;1101;22502;-75
2021/03/07 03:32:01;;;;;;;12.40;7.80;;;;;;;2.75;62.68;101026.29;128042;1101;24616;-75
2021/03/07 03:34:30;;;;;;;9.53;6.47;;;;;;;2.75;62.03;101028.89;127992;1101;22617;-75
2021/03/07 03:36:58;;;;;;;9.48;6.28;;;;;;;2.74;62.60;101033.28;127959;1101;22597;-75
2021/03/07 03:39:28;;;;;;;8.48;6.70;;;;;;;2.73;61.94;101025.54;127977;1099;22504;-76
2021/03/07 03:42:06;;;;;;;10.78;6.80;;;;;;;2.72;62.05;101026.48;128002;1100;24606;-76
2021/03/07 03:44:39;;;;;;;9.15;6.65;;;;;;;2.71;62.86;101017.00;128293;1101;22618;-76
2021/03/07 03:47:10;;;;;;;9.20;6.33;;;;;;;2.70;61.89;101018.77;127956;1101;22621;-76
2021/03/07 03:49:52;;;;;;;8.65;6.05;;;;;;;2.70;61.91;101016.16;127992;1100;24392;-75
2021/03/07 03:52:22;;;;;;;8.00;6.17;;;;;;;2.70;62.31;101015.30;128174;1100;24616;-75
2021/03/07 03:55:03;;;;;;;6.22;5.50;;;;;;;2.69;62.50;101009.25;127894;1101;25300;-75
2021/03/07 03:57:32;;;;;;;6.63;5.83;;;;;;;2.69;62.78;101008.42;128052;1101;22631;-75
2021/03/07 04:00:12;;;;;;;9.10;5.70;;;;;;;2.68;62.67;101010.20;128029;1100;22579;-75
2021/03/07 04:02:42;;;;;;;12.10;6.33;;;;;;;2.67;62.15;101008.53;127924;1100;24477;-75
2021/03/07 04:05:12;;;;;;;8.55;5.67;;;;;;;2.69;62.95;101003.20;127985;1100;24996;-75
2021/03/07 04:07:41;;;;;;;10.25;6.22;;;;;;;2.70;62.46;101002.26;128178;1099;24700;-75
2021/03/07 04:10:09;;;;;;;8.83;5.97;;;;;;;2.68;62.04;100994.55;128180;1101;22583;-74
2021/03/07 04:12:39;;;;;;;8.45;5.60;;;;;;;2.69;62.48;100987.55;128020;1099;24714;-74
2021/03/07 04:15:09;;;;;;;10.03;6.87;;;;;;;2.67;63.16;100997.27;128008;1100;22505;-73
2021/03/07 04:17:38;;;;;;;8.40;6.20;;;;;;;2.65;62.19;100989.53;128337;1099;22499;-74
2021/03/07 04:20:08;;;;;;;11.40;7.08;;;;;;;2.66;62.51;100996.41;128261;1100;22900;-74
2021/03/07 04:22:36;;;;;;;9.55;7.42;;;;;;;2.67;63.20;100990.28;127978;1101;24392;-75
2021/03/07 04:25:07;;;;;;;8.90;6.55;;;;;;;2.67;63.23;100984.23;128195;1099;24390;-75
2021/03/07 04:27:37;;;;;;;10.15;6.87;;;;;;;2.69;62.78;100980.56;128017;1101;24609;-77
2021/03/07 04:30:07;;;;;;;8.80;6.05;;;;;;;2.70;63.26;100982.25;128271;1099;22505;-75
2021/03/07 04:32:37;;;;;;;7.60;5.70;;;;;;;2.70;63.01;100974.42;128277;1101;23394;-75
2021/03/07 04:35:07;;;;;;;7.95;6.35;;;;;;;2.73;62.44;100974.22;128318;1100;22508;-74
2021/03/07 04:37:35;;;;;;;8.80;6.30;;;;;;;2.76;62.69;100971.38;128282;1101;22544;-76
2021/03/07 04:40:05;;;;;;;10.48;6.00;;;;;;;2.76;62.72;100967.94;128187;1101;22621;-74
2021/03/07 04:42:34;;;;;;;8.53;6.17;;;;;;;2.79;62.65;100975.56;128161;1101;24351;-74
2021/03/07 04:45:04;;;;;;;8.53;5.90;;;;;;;2.78;63.29;100977.34;127940;1101;23440;-75
2021/03/07 04:47:32;;;;;;;8.75;6.17;;;;;;;2.80;62.73;100974.66;128219;1099;23537;-75
2021/03/07 04:50:00;;;;;;;8.38;6.30;;;;;;;2.79;62.58;100981.61;128185;1100;24626;-74
2021/03/07 04:52:28;;;;;;;7.70;5.75;;;;;;;2.77;62.98;100967.86;128171;1101;22618;-74
2021/03/07 04:54:57;;;;;;;7.22;6.00;;;;;;;2.76;62.66;100971.38;128172;1101;22538;-74
2021/03/07 04:57:25;;;;;;;9.45;6.37;;;;;;;2.77;62.76;100965.25;128232;1100;22504;-75
2021/03/07 04:59:53;;;;;;;7.73;5.90;;;;;;;2.77;63.26;100957.42;128167;1101;22505;-74
2021/03/07 05:02:21;;;;;;;8.35;6.15;;;;;;;2.78;63.21;100961.69;128165;1100;24350;-75
2021/03/07 05:04:49;;;;;;;9.00;7.37;;;;;;;2.77;62.58;100953.98;128173;1100;22621;-74
2021/03/07 05:07:18;;;;;;;11.48;6.78;;;;;;;2.76;62.52;100958.34;128132;1100;22516;-74
2021/03/07 05:09:46;;;;;;;8.78;6.40;;;;;;;2.76;62.89;100947.90;128190;1101;23227;-74
2021/03/07 05:12:14;;;;;;;8.05;6.25;;;;;;;2.76;62.98;100945.29;128195;1099;24630;-75
2021/03/07 05:15:06;;;;;;;12.15;8.95;;;;;;;2.74;62.92;100939.36;128120;1100;22535;-74
2021/03/07 05:17:35;;;;;;;17.50;10.93;;;;;;;2.75;62.62;100946.23;128194;1101;24340;-74
2021/03/07 05:20:05;;;;;;;21.97;11.67;;;;;;;2.74;62.25;100941.97;128232;1100;24709;-74
2021/03/07 05:22:33;;;;;;;14.40;10.28;;;;;;;2.75;62.43;100940.19;128168;1100;22536;-74
2021/03/07 05:25:02;;;;;;;24.90;14.03;;;;;;;2.78;62.95;100953.03;127960;1101;23801;-75
2021/03/07 05:27:31;;;;;;;14.18;8.58;;;;;;;2.79;62.42;100939.87;127991;1101;24669;-75
2021/03/07 05:29:59;;;;;;;21.60;9.85;;;;;;;2.81;62.27;100950.22;127936;1101;24294;-75
2021/03/07 05:32:28;;;;;;;13.90;10.25;;;;;;;2.81;62.86;100945.83;128190;1101;22592;-76
2021/03/07 05:34:56;;;;;;;12.45;8.68;;;;;;;2.81;63.35;100945.00;128218;1101;24616;-75
2021/03/07 05:37:24;;;;;;;11.12;8.40;;;;;;;2.82;63.19;100936.22;128165;1101;22478;-75
2021/03/07 05:39:54;;;;;;;12.53;9.73;;;;;;;2.80;63.17;100936.34;127992;1101;22575;-75
2021/03/07 05:42:22;;;;;;;13.85;9.73;;;;;;;2.75;62.20;100935.80;128227;1100;22481;-75
2021/03/07 05:44:51;;;;;;;15.35;10.18;;;;;;;2.76;62.45;100931.41;128172;1101;22520;-75
2021/03/07 05:47:19;;;;;;;13.83;9.37;;;;;;;2.80;62.88;100938.13;128163;1101;22502;-75
2021/03/07 05:49:48;;;;;;;17.92;11.93;;;;;;;2.81;63.14;100930.17;127951;1101;24327;-75
2021/03/07 05:52:16;;;;;;;16.80;10.43;;;;;;;2.83;63.19;100930.92;128193;1101;22527;-75
2021/03/07 05:54:44;;;;;;;16.02;10.78;;;;;;;2.85;62.47;100922.14;127970;1101;22495;-75
2021/03/07 05:57:16;;;;;;;15.98;11.15;;;;;;;2.86;63.33;100924.63;128151;1100;22498;-75
2021/03/07 05:59:44;;;;;;;25.08;13.83;;;;;;;2.85;63.01;100914.31;128243;1101;22490;-75
2021/03/07 06:02:14;;;;;;;19.37;11.73;;;;;;;2.81;62.73;100917.12;128147;1101;22632;-76
2021/03/07 06:04:45;;;;;;;20.88;14.53;;;;;;;2.81;63.10;100916.30;128303;1101;22496;-76
2021/03/07 06:07:34;;;;;;;13.20;9.20;;;;;;;2.81;62.66;100914.52;128002;1101;22579;-76
2021/03/07 06:10:24;;;;;;;13.62;9.85;;;;;;;2.83;63.44;100911.80;128223;1100;22491;-76
2021/03/07 06:12:59;;;;;;;13.68;10.82;;;;;;;2.81;63.42;100914.52;128166;1101;22529;-75
2021/03/07 06:16:08;;;;;;;18.75;13.62;;;;;;;2.82;62.98;100916.18;128204;1101;22512;-75
2021/03/07 06:18:43;;;;;;;19.07;13.03;;;;;;;2.86;63.62;100923.80;128262;1101;22557;-74
2021/03/07 06:21:33;;;;;;;11.83;9.73;;;;;;;2.87;63.77;100917.66;128223;1100;24618;-75
2021/03/07 06:24:03;;;;;;;11.35;8.15;;;;;;;2.87;63.82;100931.55;128241;1100;23406;-74
2021/03/07 06:26:32;;;;;;;9.88;7.00;;;;;;;2.86;63.85;100918.59;128175;1100;22822;-74
2021/03/07 06:29:11;;;;;;;10.32;8.38;;;;;;;2.86;63.53;100915.97;128205;1100;22491;-75
2021/03/07 06:31:42;;;;;;;9.45;8.35;;;;;;;2.82;63.29;100924.01;128190;1101;24377;-74
2021/03/07 06:34:10;;;;;;;11.00;8.87;;;;;;;2.83;63.25;100930.05;128191;1100;25101;-74
2021/03/07 06:36:39;;;;;;;9.98;7.85;;;;;;;2.82;63.94;100918.79;128117;1099;23482;-74
2021/03/07 06:39:10;;;;;;;8.93;7.97;;;;;;;2.85;63.33;100927.36;128229;1101;22870;-74
2021/03/07 06:41:38;;;;;;;18.40;11.88;;;;;;;2.85;63.31;100922.97;127932;1100;22511;-74
2021/03/07 06:44:13;;;;;;;13.45;11.18;;;;;;;2.85;63.28;100925.58;128183;1101;22500;-74
2021/03/07 06:46:47;;;;;;;12.30;10.63;;;;;;;2.85;63.79;100916.92;128026;1101;25383;-73
2021/03/07 06:49:25;;;;;;;13.55;11.45;;;;;;;2.85;63.08;100915.14;128001;1101;22860;-74
2021/03/07 06:52:01;;;;;;;13.32;9.85;;;;;;;2.86;63.60;100915.97;128028;1101;22478;-74
2021/03/07 06:54:29;;;;;;;13.35;10.93;;;;;;;2.88;63.45;100912.33;128198;1101;22596;-74
2021/03/07 06:56:57;;;;;;;16.85;12.18;;;;;;;2.90;63.60;100904.38;127966;1100;23098;-75
2021/03/07 06:59:26;;;;;;;13.62;10.58;;;;;;;2.93;64.16;100906.78;128173;1101;24781;-74
2021/03/07 07:01:57;;;;;;;27.42;24.52;;;;;;;2.98;64.40;100909.93;128177;1101;22576;-74
2021/03/07 07:04:40;;;;;;;14.03;11.55;;;;;;;3.04;63.62;100912.13;128334;1099;22494;-74
2021/03/07 07:07:18;;;;;;;14.47;12.55;;;;;;;3.03;63.94;100905.20;128080;1101;22528;-76
2021/03/07 07:09:49;;;;;;;13.72;11.63;;;;;;;3.11;63.74;100905.53;128294;1101;22493;-74
2021/03/07 07:12:29;;;;;;;13.38;11.53;;;;;;;3.17;63.93;100901.67;128227;1101;22487;-75
2021/03/07 07:15:14;;;;;;;16.17;10.80;;;;;;;3.15;63.80;100896.54;128010;1101;22612;-74
2021/03/07 07:17:42;;;;;;;11.07;9.83;;;;;;;3.12;63.36;100911.58;128181;1099;22868;-74
2021/03/07 07:20:12;;;;;;;10.23;8.90;;;;;;;3.11;63.68;100902.09;128273;1101;22613;-74
2021/03/07 07:22:40;;;;;;;8.93;8.05;;;;;;;3.10;63.17;100888.21;128209;1100;25897;-74
2021/03/07 07:25:10;;;;;;;11.22;8.48;;;;;;;3.09;62.57;100902.18;128013;1101;22649;-75
2021/03/07 07:27:38;;;;;;;8.85;8.00;;;;;;;3.08;62.54;100889.25;128167;1099;22473;-74
2021/03/07 07:30:07;;;;;;;11.35;8.58;;;;;;;3.05;63.14;100890.29;128007;1101;22503;-74
2021/03/07 07:32:41;;;;;;;8.78;7.87;;;;;;;3.04;62.82;100886.84;128221;1101;22636;-73
2021/03/07 07:35:25;;;;;;;10.63;9.53;;;;;;;3.05;62.74;100890.29;128338;1101;22504;-74
2021/03/07 07:38:02;;;;;;;10.53;9.43;;;;;;;3.04;63.31;100886.02;127984;1101;24350;-74
2021/03/07 07:40:38;;;;;;;12.82;9.63;;;;;;;3.04;62.51;100878.19;128215;1099;22521;-74
2021/03/07 07:43:08;;;;;;;12.47;10.60;;;;;;;3.06;62.88;100879.73;128159;1101;22972;-73
2021/03/07 07:45:38;;;;;;;15.98;11.15;;;;;;;3.08;63.31;100873.59;128139;1099;22495;-74
2021/03/07 07:48:10;;;;;;;14.30;10.50;;;;;;;3.10;62.82;100869.94;128295;1100;22484;-74
2021/03/07 07:50:39;;;;;;;13.50;10.72;;;;;;;3.11;63.59;100868.98;128315;1099;24572;-74
2021/03/07 07:53:13;;;;;;;12.93;8.35;;;;;;;3.11;63.47;100868.16;128199;1101;22490;-76
2021/03/07 07:55:47;;;;;;;12.10;9.40;;;;;;;3.11;63.37;100865.55;128131;1101;23276;-75
2021/03/07 07:58:34;;;;;;;12.55;10.32;;;;;;;3.11;63.02;100874.20;128172;1101;22596;-75
2021/03/07 08:01:09;;;;;;;11.88;10.53;;;;;;;3.11;63.18;100868.16;128290;1099;22492;-75
2021/03/07 08:03:50;;;;;;;13.05;9.33;;;;;;;3.09;62.81;100863.03;128176;1099;23245;-75
2021/03/07 08:06:24;;;;;;;10.93;7.72;;;;;;;3.06;62.95;100855.41;128268;1101;24574;-75
2021/03/07 08:08:52;;;;;;;13.00;8.58;;;;;;;3.06;62.59;100856.23;128262;1099;24361;-75
2021/03/07 08:11:30;;;;;;;9.93;8.90;;;;;;;3.08;62.65;100852.70;128163;1101;22494;-74
2021/03/07 08:14:01;;;;;;;9.77;8.50;;;;;;;3.08;62.40;100848.31;128227;1101;22489;-75
2021/03/07 08:16:41;;;;;;;10.80;9.70;;;;;;;3.09;62.66;100855.20;127999;1099;22616;-74
2021/03/07 08:19:13;;;;;;;15.35;9.85;;;;;;;3.11;62.23;100855.94;128243;1099;22514;-75
2021/03/07 08:21:58;;;;;;;19.67;11.65;;;;;;;3.12;61.72;100851.54;128139;1099;22487;-75
2021/03/07 08:24:55;;;;;;;15.93;11.57;;;;;;;3.10;61.40;100854.27;128224;1100;22496;-75
2021/03/07 08:27:40;;;;;;;15.93;11.03;;;;;;;3.10;62.19;100846.45;128214;1099;22560;-75
2021/03/07 08:30:14;;;;;;;18.87;13.70;;;;;;;3.11;62.27;100853.33;128177;1101;22791;-75
2021/03/07 08:32:44;;;;;;;17.02;11.75;;;;;;;3.15;61.37;100840.89;128220;1101;22489;-75
2021/03/07 08:35:15;;;;;;;14.45;10.63;;;;;;;3.16;61.42;100840.77;128185;1101;22566;-75
2021/03/07 08:38:09;;;;;;;13.20;10.90;;;;;;;3.20;61.97;100833.55;128255;1100;22561;-75
2021/03/07 08:40:40;;;;;;;14.00;11.20;;;;;;;3.18;61.36;100833.67;128208;1101;24043;-75
2021/03/07 08:43:21;;;;;;;13.22;10.13;;;;;;;3.20;62.03;100830.94;128182;1100;22485;-74
2021/03/07 08:46:12;;;;;;;16.85;12.28;;;;;;;3.21;61.23;100835.23;128228;1101;22563;-75
2021/03/07 08:48:44;;;;;;;12.35;11.05;;;;;;;3.20;61.96;100820.49;128185;1099;22592;-75
2021/03/07 08:51:13;;;;;;;;;;;;;;;3.13;61.29;100807.04;128259;1101;24600;-74
2021/03/07 08:53:45;;;;;;;12.45;10.88;;;;;;;3.08;61.19;100816.16;128243;1100;21299;-75
2021/03/07 08:56:14;;;;;;;12.13;9.40;;;;;;;3.10;61.49;100815.12;128212;1101;22511;-78
2021/03/07 08:58:47;;;;;;;10.60;7.93;;;;;;;3.22;62.08;100814.23;127969;1101;23234;-78
2021/03/07 09:01:15;;;;;;;9.38;7.95;;;;;;;3.28;61.53;100819.02;128242;1100;24343;-78
2021/03/07 09:03:53;;;;;;;8.38;7.37;;;;;;;3.33;61.88;100810.02;128273;1100;22635;-78
2021/03/07 09:06:28;;;;;;;13.88;8.55;;;;;;;3.37;61.66;100817.54;128304;1101;22485;-78
2021/03/07 09:09:07;;;;;;;13.15;6.47;;;;;;;3.42;61.11;100814.59;128265;1099;22948;-78
2021/03/07 09:11:49;;;;;;;14.58;7.83;;;;;;;3.42;61.20;100812.80;128054;1101;24645;-78
2021/03/07 09:14:33;;;;;;;13.43;8.23;;;;;;;3.46;60.95;100803.80;128078;1101;24575;-77
2021/03/07 09:17:05;;;;;;;13.28;7.58;;;;;;;3.50;60.72;100814.89;128240;1099;22581;-78
2021/03/07 09:19:37;;;;;;;14.38;7.72;;;;;;;3.52;59.64;100819.03;128023;1099;24352;-76
2021/03/07 09:22:23;;;;;;;11.35;8.20;;;;;;;3.50;59.93;100812.27;128268;1099;25061;-74
2021/03/07 09:25:00;;;;;;;7.50;6.70;;;;;;;3.48;60.01;100803.70;127995;1101;22484;-74
2021/03/07 09:27:49;;;;;;;9.08;6.80;;;;;;;3.50;59.75;100804.44;128220;1099;22487;-74
2021/03/07 09:30:19;;;;;;;9.55;6.62;;;;;;;3.50;59.75;100800.05;128035;1100;22512;-74
2021/03/07 09:32:50;;;;;;;8.43;6.05;;;;;;;3.49;58.50;100807.97;128001;1101;22637;-74
2021/03/07 09:35:31;;;;;;;10.78;7.20;;;;;;;3.47;59.41;100812.49;128010;1101;22524;-74
2021/03/07 09:38:11;;;;;;;11.55;8.53;;;;;;;3.50;58.50;100804.44;128011;1100;22528;-75
2021/03/07 09:40:56;;;;;;;8.88;5.95;;;;;;;3.52;58.42;100812.98;128278;1099;22500;-75
2021/03/07 09:43:26;;;;;;;10.55;6.55;;;;;;;3.48;58.66;100803.70;128117;1101;22616;-75
2021/03/07 09:45:55;;;;;;;11.03;9.38;;;;;;;3.52;58.09;100803.36;127969;1101;22599;-75
2021/03/07 09:48:41;;;;;;;9.43;6.42;;;;;;;3.56;57.97;100805.75;128175;1101;24442;-75
2021/03/07 09:51:15;;;;;;;12.50;6.95;;;;;;;3.58;58.58;100801.26;127987;1101;22567;-75
2021/03/07 09:53:43;;;;;;;8.08;7.15;;;;;;;3.60;58.43;100800.20;127991;1101;22498;-75
2021/03/07 09:56:30;;;;;;;15.38;8.03;;;;;;;3.67;58.36;100797.98;128199;1099;22490;-74
2021/03/07 09:59:21;;;;;;;14.55;6.45;;;;;;;3.71;58.27;100791.58;128232;1099;24350;-75
2021/03/07 10:02:05;;;;;;;10.72;6.37;;;;;;;3.70;57.57;100790.75;128210;1100;22526;-75
2021/03/07 10:04:35;;;;;;;11.33;6.25;;;;;;;3.70;57.96;100792.53;128216;1099;22523;-75
2021/03/07 10:07:09;;;;;;;9.53;5.83;;;;;;;3.72;57.92;100790.63;127970;1101;22489;-75
2021/03/07 10:10:00;;;;;;;12.78;7.20;;;;;;;3.74;57.39;100789.57;128237;1101;22548;-75
2021/03/07 10:12:59;;;;;;;11.48;7.45;;;;;;;3.73;57.47;100792.28;128187;1099;25285;-75
2021/03/07 10:15:32;;;;;;;16.02;8.68;;;;;;;3.70;57.00;100777.69;128076;1101;22522;-76
2021/03/07 10:18:16;;;;;;;13.62;8.73;;;;;;;3.68;57.34;100789.19;128314;1099;22591;-75
2021/03/07 10:20:51;;;;;;;15.95;10.10;;;;;;;3.65;57.08;100782.40;128214;1101;23475;-76
2021/03/07 10:23:20;;;;;;;10.75;8.38;;;;;;;3.64;57.76;100785.14;128266;1099;22492;-75
2021/03/07 10:25:49;;;;;;;13.38;8.53;;;;;;;3.64;57.92;100790.37;128297;1101;22500;-75
2021/03/07 10:28:34;;;;;;;12.78;8.13;;;;;;;3.63;57.34;100791.29;128099;1101;22467;-75
2021/03/07 10:31:12;;;;;;;12.30;8.53;;;;;;;3.59;57.01;100780.23;128388;1100;22526;-75
2021/03/07 10:33:41;;;;;;;13.43;8.45;;;;;;;3.58;57.10;100786.41;128218;1101;22541;-75
2021/03/07 10:36:20;;;;;;;10.75;8.03;;;;;;;3.55;57.71;100802.31;128073;1101;22931;-75
2021/03/07 10:39:10;;;;;;;16.87;8.20;;;;;;;3.51;57.42;100799.09;128342;1100;22475;-75
2021/03/07 10:41:38;;;;;;;9.65;6.08;;;;;;;3.44;56.79;100794.42;128112;1099;22553;-76
2021/03/07 10:44:08;;;;;;;14.65;7.30;;;;;;;3.41;57.80;100792.86;128340;1100;22496;-75
2021/03/07 10:46:42;;;;;;;12.90;7.42;;;;;;;3.46;57.43;100795.13;128204;1099;22540;-75
2021/03/07 10:49:26;;;;;;;8.95;6.35;;;;;;;3.47;57.80;100788.98;128079;1099;24667;-75
2021/03/07 10:51:54;;;;;;;9.10;6.25;;;;;;;3.48;56.90;100788.03;128046;1101;24404;-75
2021/03/07 10:54:25;;;;;;;14.18;6.75;;;;;;;3.54;57.68;100770.13;128329;1099;22596;-75
2021/03/07 10:56:53;;;;;;;9.58;6.87;;;;;;;3.61;57.86;100778.35;128094;1099;23514;-75
2021/03/07 10:59:21;;;;;;;10.10;7.55;;;;;;;3.64;57.01;100766.85;128293;1101;25135;-75
2021/03/07 11:01:49;;;;;;;15.78;6.95;;;;;;;3.66;56.79;100765.77;128032;1100;22616;-75
2021/03/07 11:04:18;;;;;;;8.48;6.20;;;;;;;3.60;56.30;100768.00;128086;1100;22728;-74
2021/03/07 11:06:46;;;;;;;11.22;5.58;;;;;;;3.57;56.94;100760.42;128280;1099;22487;-75
2021/03/07 11:09:14;;;;;;;10.68;5.53;;;;;;;3.56;56.78;100770.00;128047;1101;24066;-75
2021/03/07 11:11:43;;;;;;;8.50;5.10;;;;;;;3.57;56.79;100763.03;128309;1101;22515;-74
2021/03/07 11:14:11;;;;;;;9.05;5.28;;;;;;;3.57;55.74;100765.64;128076;1101;22584;-75
2021/03/07 11:16:39;;;;;;;12.03;6.65;;;;;;;3.55;56.10;100755.29;128095;1101;22487;-75
2021/03/07 11:19:20;;;;;;;8.65;6.10;;;;;;;3.56;56.30;100753.50;128151;1100;22494;-74
2021/03/07 11:21:49;;;;;;;10.40;7.20;;;;;;;3.55;56.04;100752.67;128278;1101;22489;-75
2021/03/07 11:24:17;;;;;;;11.12;5.92;;;;;;;3.55;55.45;100752.67;128103;1100;22486;-75
2021/03/07 11:26:45;;;;;;;9.98;5.97;;;;;;;3.56;55.51;100745.66;128025;1101;22588;-74
2021/03/07 11:29:13;;;;;;;9.15;6.12;;;;;;;3.51;55.99;100743.41;128161;1101;24613;-75
2021/03/07 11:31:41;;;;;;;11.12;6.87;;;;;;;3.53;55.96;100744.11;128249;1101;22501;-74
2021/03/07 11:34:10;;;;;;;10.23;6.08;;;;;;;3.53;55.54;100741.49;128320;1101;22598;-74
2021/03/07 11:36:38;;;;;;;10.38;6.53;;;;;;;3.53;55.34;100747.58;128297;1101;22552;-74
2021/03/07 11:39:07;;;;;;;9.45;6.22;;;;;;;3.56;55.85;100737.83;128329;1100;22631;-74
2021/03/07 11:41:35;;;;;;;8.68;4.97;;;;;;;3.55;55.53;100734.39;128311;1101;22529;-74
2021/03/07 11:44:04;;;;;;;9.28;5.10;;;;;;;3.59;55.26;100732.38;128306;1100;23508;-74